Terminal Aerodrome Forecast
Issued by NWS Shreveport, LA

Home | Current Version | Previous Version | Text Only | Print | Product List | Glossary On
Versions: 1 2 3 4 5 6 7 8 9 10 11 12 13 14 15 16 17 18 19 20
263
FTUS44 KSHV 261739
TAFLFK
TAF
KLFK 261739Z 2618/2718 08006KT P6SM SCT060 SCT100 SCT250
     FM270100 10003KT P6SM BKN120 BKN250
     FM270300 00000KT P6SM BKN040 BKN150 OVC250
     FM270900 00000KT 3SM BR BKN008 OVC030
     FM271500 06004KT P6SM SCT015 BKN100 OVC250=

USA.gov is the U.S. government's official web portal to all federal, state and local government web resources and services.